CheckWX is a tool to help pilots better visualize weather data.  It is not intended as a substitute for an official pre-flight weather briefing.

05:38:02 UTC

KBVO METAR
Bartlesville Municipal Airport
Bartlesville, Oklahoma, USA
Current

45 mins ago

KBVO 280453Z AUTO 33005KT 10SM FEW018 SCT027 BKN038 06/02 A3026 RMK AO2 SLP245 T00560022
Observed
Feb-28 @ 04:53 UTC
Wind
  • 330° at 5 KTS
Visibility
10 SM
Flight Rules
VFR
Cloud Levels
  • Few at 1,800' AGL
  • Scattered at 2,700' AGL
  • Broken at 3,800' AGL
Temperature
C / 43°F
Dewpoint
C / 36°F
Humidity
76%
Altimeter
30.26" Hg
Pressure
1024.72 hPa
Previous

1 hour ago

KBVO 280426Z AUTO 10SM SCT018 BKN027 06/02 A3025 RMK AO2 T00560022
Observed
Feb-28 @ 04:26 UTC
Visibility
10 SM
Flight Rules
MVFR
Cloud Levels
  • Scattered at 1,800' AGL
  • Broken at 2,700' AGL
Temperature
C / 43°F
Dewpoint
C / 36°F
Humidity
76%
Altimeter
30.25" Hg
Pressure
1024.42 hPa
Previous

2 hours ago

KBVO 280353Z AUTO 00000KT 10SM CLR 05/02 A3023 RMK AO2 SLP238 T00500017
Observed
Feb-28 @ 03:53 UTC
Visibility
10 SM
Flight Rules
VFR
Cloud Levels
  • Clear skies
Temperature
C / 41°F
Dewpoint
C / 36°F
Humidity
81%
Altimeter
30.23" Hg
Pressure
1023.72 hPa